createdAt,value
2022-09-28T00:01:25.887Z,99492.22
2022-09-28T00:03:59.748Z,99492.22
2022-09-28T00:06:30.738Z,99492.31
2022-09-28T00:08:58.352Z,99494.94
2022-09-28T00:11:29.224Z,99486.13
2022-09-28T00:14:03.717Z,99494.00
2022-09-28T00:16:35.861Z,99491.50
2022-09-28T00:19:04.942Z,99486.25
2022-09-28T00:21:35.231Z,99487.09
2022-09-28T00:24:15.624Z,99480.22
2022-09-28T00:26:47.209Z,99480.38
2022-09-28T00:29:34.374Z,99480.41
2022-09-28T00:32:06.655Z,99481.31
2022-09-28T00:34:37.611Z,99480.47
2022-09-28T00:37:06.515Z,99491.00
2022-09-28T00:39:35.617Z,99483.09
2022-09-28T00:42:10.922Z,99475.34
2022-09-28T00:44:54.424Z,99485.06
2022-09-28T00:47:49.483Z,99479.97
2022-09-28T00:50:26.803Z,99481.91
2022-09-28T00:52:57.276Z,99480.16
2022-09-28T00:56:00.983Z,99474.91
2022-09-28T00:58:33.510Z,99467.06
2022-09-28T01:01:00.900Z,99470.69
2022-09-28T01:03:29.424Z,99468.06
2022-09-28T01:06:02.234Z,99468.97
2022-09-28T01:08:32.852Z,99466.47
2022-09-28T01:11:00.452Z,99461.38
2022-09-28T01:13:31.485Z,99466.75
2022-09-28T01:16:23.687Z,99467.72
2022-09-28T01:19:39.080Z,99463.50
2022-09-28T01:22:35.775Z,99462.69
2022-09-28T01:25:25.023Z,99459.97
2022-09-28T01:28:25.704Z,99460.84
2022-09-28T01:31:15.049Z,99456.50
2022-09-28T01:33:48.096Z,99466.03
2022-09-28T01:36:31.359Z,99458.25
2022-09-28T01:39:24.309Z,99454.09
2022-09-28T01:41:57.699Z,99459.38
2022-09-28T01:44:30.747Z,99453.31
2022-09-28T01:47:04.232Z,99457.66
2022-09-28T01:49:42.256Z,99449.06
2022-09-28T01:52:41.558Z,99459.72
2022-09-28T01:55:29.732Z,99462.38
2022-09-28T01:58:11.627Z,99455.41
2022-09-28T02:00:46.766Z,99446.63
2022-09-28T02:03:29.712Z,99458.03
2022-09-28T02:06:16.322Z,99450.16
2022-09-28T02:08:54.032Z,99450.97
2022-09-28T02:11:25.996Z,99448.22
2022-09-28T02:14:01.704Z,99445.47
2022-09-28T02:16:41.020Z,99453.41
2022-09-28T02:19:16.018Z,99455.94
2022-09-28T02:22:07.903Z,99449.06
2022-09-28T02:24:54.467Z,99445.19
2022-09-28T02:27:41.235Z,99450.75
2022-09-28T02:30:09.763Z,99450.13
2022-09-28T02:32:42.562Z,99449.59
2022-09-28T02:35:15.030Z,99451.41
2022-09-28T02:37:42.374Z,99456.84
2022-09-28T02:40:23.271Z,99459.63
2022-09-28T02:43:23.857Z,99458.00
2022-09-28T02:46:33.977Z,99456.38
2022-09-28T02:49:30.058Z,99460.88
2022-09-28T02:52:35.287Z,99462.63
2022-09-28T02:55:30.543Z,99459.16
2022-09-28T02:58:13.966Z,99459.03
2022-09-28T03:01:09.018Z,99468.41
2022-09-28T03:03:57.681Z,99464.78
2022-09-28T03:06:39.512Z,99457.53
2022-09-28T03:09:28.984Z,99461.59
2022-09-28T03:12:03.598Z,99468.44
2022-09-28T03:14:30.647Z,99469.16
2022-09-28T03:16:58.226Z,99465.63
2022-09-28T03:19:32.655Z,99467.19
2022-09-28T03:22:01.130Z,99460.06
2022-09-28T03:24:28.592Z,99455.59
2022-09-28T03:26:55.608Z,99458.13
2022-09-28T03:29:23.432Z,99458.13
2022-09-28T03:31:57.382Z,99460.66
2022-09-28T03:34:24.423Z,99464.97
2022-09-28T03:36:52.086Z,99463.25
2022-09-28T03:39:19.426Z,99454.38
2022-09-28T03:41:46.475Z,99463.97
2022-09-28T03:44:13.856Z,99464.88
2022-09-28T03:46:41.322Z,99462.25
2022-09-28T03:49:10.102Z,99463.97
2022-09-28T03:51:37.172Z,99462.97
2022-09-28T03:54:05.068Z,99457.63
2022-09-28T03:56:32.290Z,99463.59
2022-09-28T03:58:59.508Z,99467.94
2022-09-28T04:01:27.212Z,99465.22
2022-09-28T04:03:56.049Z,99466.03
2022-09-28T04:06:25.890Z,99460.69
2022-09-28T04:08:53.435Z,99463.28
2022-09-28T04:11:20.396Z,99459.66
2022-09-28T04:13:50.586Z,99456.97
2022-09-28T04:16:18.603Z,99459.47
2022-09-28T04:18:55.301Z,99462.03
2022-09-28T04:21:45.669Z,99455.00
2022-09-28T04:24:14.549Z,99459.41
2022-09-28T04:26:41.603Z,99455.06
2022-09-28T04:29:16.997Z,99461.31
2022-09-28T04:31:53.397Z,99461.38
2022-09-28T04:34:23.824Z,99457.88
2022-09-28T04:36:51.153Z,99458.75
2022-09-28T04:39:21.676Z,99458.78
2022-09-28T04:41:51.888Z,99458.78
2022-09-28T04:44:19.256Z,99457.88
2022-09-28T04:46:47.825Z,99455.22
2022-09-28T04:49:37.018Z,99453.22
2022-09-28T04:52:09.344Z,99461.63
2022-09-28T04:54:36.383Z,99464.25
2022-09-28T04:57:04.926Z,99455.78
2022-09-28T04:59:33.437Z,99467.34
2022-09-28T05:02:00.781Z,99466.66
2022-09-28T05:04:46.478Z,99462.59
2022-09-28T05:07:37.587Z,99461.97
2022-09-28T05:10:07.181Z,99458.75
2022-09-28T05:12:34.767Z,99467.81
2022-09-28T05:15:01.814Z,99470.81
2022-09-28T05:17:28.966Z,99473.69
2022-09-28T05:20:10.049Z,99470.44
2022-09-28T05:22:38.094Z,99474.09
2022-09-28T05:25:08.798Z,99469.03
2022-09-28T05:27:48.409Z,99480.69
2022-09-28T05:30:36.133Z,99487.81
2022-09-28T05:33:28.027Z,99482.59
2022-09-28T05:36:11.728Z,99479.06
2022-09-28T05:38:38.864Z,99479.72
2022-09-28T05:41:06.941Z,99481.34
2022-09-28T05:43:34.499Z,99483.94
2022-09-28T05:46:06.430Z,99479.50
2022-09-28T05:48:38.654Z,99483.06
2022-09-28T05:51:06.701Z,99481.41
2022-09-28T05:53:33.629Z,99479.78
2022-09-28T05:56:02.253Z,99484.13
2022-09-28T05:58:31.757Z,99485.03
2022-09-28T06:01:00.842Z,99486.00
2022-09-28T06:03:28.925Z,99493.00
2022-09-28T06:05:55.945Z,99494.81
2022-09-28T06:08:24.147Z,99496.59
2022-09-28T06:11:02.222Z,99502.75
2022-09-28T06:13:29.399Z,99505.25
2022-09-28T06:15:56.487Z,99511.16
2022-09-28T06:18:23.803Z,99512.88
2022-09-28T06:21:19.004Z,99519.94
2022-09-28T06:23:49.231Z,99514.84
2022-09-28T06:26:18.050Z,99521.91
2022-09-28T06:28:45.922Z,99527.16
2022-09-28T06:31:13.256Z,99523.72
2022-09-28T06:33:45.309Z,99525.47
2022-09-28T06:36:13.342Z,99527.97
2022-09-28T06:38:40.347Z,99529.47
2022-09-28T06:41:07.417Z,99537.94
2022-09-28T06:43:35.124Z,99534.31
2022-09-28T06:46:20.924Z,99535.72
2022-09-28T06:48:51.291Z,99531.84
2022-09-28T06:51:26.580Z,99533.28
2022-09-28T06:53:56.537Z,99535.53
2022-09-28T06:56:37.230Z,99533.34
2022-09-28T06:59:05.417Z,99539.84
2022-09-28T07:01:33.526Z,99537.53
2022-09-28T07:04:26.654Z,99535.03
2022-09-28T07:06:54.215Z,99537.31
2022-09-28T07:09:44.951Z,99537.91
2022-09-28T07:12:41.737Z,99539.47
2022-09-28T07:15:25.381Z,99548.13
2022-09-28T07:18:02.427Z,99542.56
2022-09-28T07:20:46.503Z,99546.38
2022-09-28T07:23:19.945Z,99545.53
2022-09-28T07:26:08.657Z,99548.34
2022-09-28T07:29:02.447Z,99550.63
2022-09-28T07:31:54.741Z,99544.16
2022-09-28T07:34:44.483Z,99560.50
2022-09-28T07:37:18.829Z,99553.25
2022-09-28T07:40:05.155Z,99554.81
2022-09-28T07:42:36.387Z,99567.47
2022-09-28T07:45:04.547Z,99568.13
2022-09-28T07:47:35.197Z,99575.63
2022-09-28T07:50:18.068Z,99573.72
2022-09-28T07:53:05.411Z,99576.19
2022-09-28T07:55:56.949Z,99579.47
2022-09-28T07:58:37.355Z,99577.47
2022-09-28T08:01:39.248Z,99583.22
2022-09-28T08:04:09.325Z,99593.47
2022-09-28T08:06:37.264Z,99589.91
2022-09-28T08:09:06.123Z,99587.38
2022-09-28T08:12:05.567Z,99588.69
2022-09-28T08:14:46.964Z,99598.91
2022-09-28T08:17:29.192Z,99599.69
2022-09-28T08:20:17.876Z,99601.44
2022-09-28T08:22:45.300Z,99598.41
2022-09-28T08:25:13.763Z,99604.72
2022-09-28T08:27:41.068Z,99611.47
2022-09-28T08:30:09.143Z,99607.22
2022-09-28T08:33:02.196Z,99608.28
2022-09-28T08:35:46.873Z,99611.63
2022-09-28T08:38:18.346Z,99613.66
2022-09-28T08:41:23.508Z,99615.53
2022-09-28T08:44:25.930Z,99613.47
2022-09-28T08:47:38.525Z,99612.94
2022-09-28T08:50:33.840Z,99616.25
2022-09-28T08:53:41.682Z,99612.34
2022-09-28T08:56:42.992Z,99621.75
2022-09-28T08:59:22.685Z,99621.84
2022-09-28T09:02:03.560Z,99615.16
2022-09-28T09:04:33.892Z,99619.41
2022-09-28T09:07:54.616Z,99616.16
2022-09-28T09:11:00.403Z,99616.09
2022-09-28T09:14:08.929Z,99629.94
2022-09-28T09:17:15.202Z,99624.13
2022-09-28T09:20:42.354Z,99627.16
2022-09-28T09:23:43.129Z,99634.13
2022-09-28T09:26:32.264Z,99635.81
2022-09-28T09:29:12.289Z,99633.72
2022-09-28T09:32:12.988Z,99641.97
2022-09-28T09:35:31.849Z,99636.91
2022-09-28T09:38:36.131Z,99639.28
2022-09-28T09:41:58.841Z,99641.94
2022-09-28T09:45:26.595Z,99649.50
2022-09-28T09:48:20.617Z,99662.16
2022-09-28T09:50:55.568Z,99652.00
2022-09-28T09:54:00.321Z,99644.47
2022-09-28T09:56:47.692Z,99645.72
2022-09-28T09:59:27.721Z,99649.84
2022-09-28T10:02:29.982Z,99646.25
2022-09-28T10:05:25.479Z,99646.84
2022-09-28T10:08:04.760Z,99638.59
2022-09-28T10:10:38.726Z,99639.19
2022-09-28T10:13:11.545Z,99635.97
2022-09-28T10:15:42.085Z,99648.38
2022-09-28T10:18:21.588Z,99645.56
2022-09-28T10:21:17.651Z,99643.66
2022-09-28T10:24:33.707Z,99633.34
2022-09-28T10:27:15.809Z,99642.25
2022-09-28T10:29:54.329Z,99650.13
2022-09-28T10:32:28.070Z,99653.13
2022-09-28T10:35:18.550Z,99649.47
2022-09-28T10:37:57.798Z,99649.38
2022-09-28T10:40:47.284Z,99644.59
2022-09-28T10:43:25.124Z,99647.72
2022-09-28T10:46:04.951Z,99648.72
2022-09-28T10:48:55.763Z,99639.72
2022-09-28T10:51:51.810Z,99644.84
2022-09-28T10:54:30.563Z,99661.38
2022-09-28T10:57:01.041Z,99650.03
2022-09-28T10:59:46.791Z,99644.84
2022-09-28T11:02:42.934Z,99649.38
2022-09-28T11:05:29.954Z,99651.16
2022-09-28T11:08:08.085Z,99649.66
2022-09-28T11:10:44.662Z,99653.91
2022-09-28T11:13:14.373Z,99649.84
2022-09-28T11:15:46.408Z,99651.25
2022-09-28T11:18:32.278Z,99631.94
2022-09-28T11:21:22.900Z,99644.78
2022-09-28T11:24:18.858Z,99638.44
2022-09-28T11:26:52.547Z,99646.19
2022-09-28T11:29:41.875Z,99636.81
2022-09-28T11:32:23.819Z,99640.19
2022-09-28T11:35:28.072Z,99645.31
2022-09-28T11:38:11.505Z,99647.25
2022-09-28T11:42:05.738Z,99636.69
2022-09-28T11:44:44.797Z,99635.09
2022-09-28T11:47:46.463Z,99630.72
2022-09-28T11:50:48.595Z,99636.94
2022-09-28T11:53:30.249Z,99636.34
2022-09-28T11:56:17.439Z,99631.03
2022-09-28T11:58:57.391Z,99632.72
2022-09-28T12:01:53.441Z,99632.66
2022-09-28T12:04:46.639Z,99635.03
2022-09-28T12:07:38.409Z,99634.34
2022-09-28T12:10:26.531Z,99634.38
2022-09-28T12:13:11.877Z,99630.69
2022-09-28T12:16:53.020Z,99631.75
2022-09-28T12:19:34.708Z,99634.28
2022-09-28T12:22:24.222Z,99633.88
2022-09-28T12:24:57.225Z,99633.41
2022-09-28T12:27:38.583Z,99633.44
2022-09-28T12:30:22.372Z,99626.63
2022-09-28T12:33:17.842Z,99638.31
2022-09-28T12:36:13.411Z,99634.75
2022-09-28T12:39:23.956Z,99632.31
2022-09-28T12:42:33.448Z,99625.69
2022-09-28T12:45:53.169Z,99620.56
2022-09-28T12:48:36.357Z,99625.59
2022-09-28T12:51:38.360Z,99626.44
2022-09-28T12:54:22.606Z,99623.59
2022-09-28T12:57:15.483Z,99614.47
2022-09-28T13:00:22.242Z,99622.00
2022-09-28T13:03:12.239Z,99622.38
2022-09-28T13:06:35.772Z,99619.59
2022-09-28T13:09:22.649Z,99618.50
2022-09-28T13:12:30.255Z,99621.63
2022-09-28T13:15:08.683Z,99622.94
2022-09-28T13:17:46.565Z,99630.81
2022-09-28T13:20:37.900Z,99622.63
2022-09-28T13:23:44.799Z,99627.09
2022-09-28T13:26:28.239Z,99629.00
2022-09-28T13:29:04.792Z,99627.19
2022-09-28T13:31:37.149Z,99624.22
2022-09-28T13:34:18.150Z,99628.31
2022-09-28T13:36:48.180Z,99632.88
2022-09-28T13:39:46.350Z,99633.75
2022-09-28T13:42:40.213Z,99632.03
2022-09-28T13:45:13.730Z,99631.13
2022-09-28T13:48:11.601Z,99631.41
2022-09-28T13:51:12.216Z,99632.78
2022-09-28T13:54:22.841Z,99632.59
2022-09-28T13:57:16.006Z,99642.72
2022-09-28T14:00:07.479Z,99648.41
2022-09-28T14:02:48.172Z,99644.91
2022-09-28T14:05:25.261Z,99649.91
2022-09-28T14:08:23.436Z,99659.53
2022-09-28T14:11:26.739Z,99660.34
2022-09-28T14:14:04.758Z,99662.88
2022-09-28T14:16:36.944Z,99665.13
2022-09-28T14:19:24.463Z,99656.97
2022-09-28T14:22:16.895Z,99668.25
2022-09-28T14:25:21.112Z,99659.31
2022-09-28T14:28:25.097Z,99666.72
2022-09-28T14:30:56.799Z,99669.66
2022-09-28T14:33:31.924Z,99678.22
2022-09-28T14:36:06.854Z,99673.94
2022-09-28T14:39:18.769Z,99679.19
2022-09-28T14:41:46.406Z,99673.91
2022-09-28T14:44:18.683Z,99670.25
2022-09-28T14:46:48.112Z,99671.66
2022-09-28T14:49:19.228Z,99672.16
2022-09-28T14:51:55.919Z,99683.81
2022-09-28T14:54:27.237Z,99689.47
2022-09-28T14:56:54.340Z,99687.91
2022-09-28T14:59:24.843Z,99718.16
2022-09-28T15:02:08.162Z,99724.19
2022-09-28T15:04:43.543Z,99727.00
2022-09-28T15:07:21.451Z,99732.88
2022-09-28T15:09:55.554Z,99735.31
2022-09-28T15:12:31.052Z,99746.34
2022-09-28T15:15:18.823Z,99742.50
2022-09-28T15:17:57.567Z,99748.16
2022-09-28T15:20:37.032Z,99744.28
2022-09-28T15:23:05.180Z,99753.50
2022-09-28T15:25:33.947Z,99755.56
2022-09-28T15:28:17.940Z,99761.97
2022-09-28T15:30:51.376Z,99763.06
2022-09-28T15:33:59.930Z,99755.44
2022-09-28T15:36:32.068Z,99760.75
2022-09-28T15:39:16.123Z,99769.66
2022-09-28T15:41:45.960Z,99766.34
2022-09-28T15:44:12.930Z,99762.91
2022-09-28T15:46:44.279Z,99766.66
2022-09-28T15:49:41.215Z,99765.16
2022-09-28T15:52:43.376Z,99762.69
2022-09-28T15:55:37.818Z,99760.13
2022-09-28T15:58:17.407Z,99755.06
2022-09-28T16:01:12.003Z,99751.41
2022-09-28T16:03:39.438Z,99744.47
2022-09-28T16:06:10.210Z,99750.06
2022-09-28T16:08:44.491Z,99757.06
2022-09-28T16:11:39.193Z,99760.34
2022-09-28T16:14:18.301Z,99757.50
2022-09-28T16:16:52.236Z,99755.41
2022-09-28T16:19:36.607Z,99751.44
2022-09-28T16:22:24.471Z,99744.31
2022-09-28T16:25:01.134Z,99746.75
2022-09-28T16:27:44.412Z,99748.94
2022-09-28T16:31:02.987Z,99750.31
2022-09-28T16:33:52.471Z,99748.03
2022-09-28T16:36:21.994Z,99751.25
2022-09-28T16:38:49.960Z,99755.34
2022-09-28T16:41:23.438Z,99748.16
2022-09-28T16:44:02.078Z,99755.84
2022-09-28T16:46:37.323Z,99759.22
2022-09-28T16:49:07.078Z,99754.72
2022-09-28T16:51:34.285Z,99754.56
2022-09-28T16:54:35.149Z,99758.06
2022-09-28T16:57:05.065Z,99759.78
2022-09-28T16:59:32.508Z,99758.06
2022-09-28T17:01:59.664Z,99763.22
2022-09-28T17:04:26.904Z,99754.56
2022-09-28T17:06:56.237Z,99759.34
2022-09-28T17:09:23.718Z,99765.69
2022-09-28T17:11:56.956Z,99766.72
2022-09-28T17:14:24.266Z,99768.75
2022-09-28T17:17:08.223Z,99777.00
2022-09-28T17:19:36.817Z,99773.00
2022-09-28T17:22:03.895Z,99777.66
2022-09-28T17:24:30.890Z,99774.50
2022-09-28T17:27:00.749Z,99779.09
2022-09-28T17:29:27.931Z,99781.13
2022-09-28T17:31:55.271Z,99777.13
2022-09-28T17:34:24.619Z,99788.88
2022-09-28T17:36:51.871Z,99787.34
2022-09-28T17:39:19.335Z,99789.38
2022-09-28T17:41:46.460Z,99794.03
2022-09-28T17:44:16.725Z,99793.34
2022-09-28T17:46:48.472Z,99800.59
2022-09-28T17:49:16.827Z,99795.44
2022-09-28T17:51:44.296Z,99807.84
2022-09-28T17:54:12.950Z,99808.03
2022-09-28T17:56:40.252Z,99804.59
2022-09-28T17:59:14.203Z,99806.50
2022-09-28T18:01:41.318Z,99803.97
2022-09-28T18:04:23.008Z,99810.22
2022-09-28T18:06:54.988Z,99808.59
2022-09-28T18:09:25.363Z,99807.88
2022-09-28T18:12:04.073Z,99815.75
2022-09-28T18:14:31.063Z,99823.72
2022-09-28T18:16:58.063Z,99817.56
2022-09-28T18:19:28.567Z,99820.19
2022-09-28T18:22:01.506Z,99816.63
2022-09-28T18:24:29.373Z,99823.53
2022-09-28T18:26:56.418Z,99817.28
2022-09-28T18:29:23.607Z,99818.94
2022-09-28T18:31:50.819Z,99823.22
2022-09-28T18:34:18.108Z,99819.81
2022-09-28T18:36:45.516Z,99828.47
2022-09-28T18:39:12.744Z,99827.56
2022-09-28T18:41:39.929Z,99816.94
2022-09-28T18:44:06.906Z,99818.66
2022-09-28T18:46:36.574Z,99820.38
2022-09-28T18:49:04.757Z,99820.44
2022-09-28T18:51:32.008Z,99822.19
2022-09-28T18:54:00.801Z,99822.25
2022-09-28T18:56:27.829Z,99824.16
2022-09-28T18:58:54.809Z,99822.53
2022-09-28T19:01:30.745Z,99821.91
2022-09-28T19:04:07.608Z,99827.34
2022-09-28T19:06:40.653Z,99823.22
2022-09-28T19:09:08.556Z,99827.78
2022-09-28T19:11:36.366Z,99817.50
2022-09-28T19:14:03.655Z,99821.22
2022-09-28T19:16:34.042Z,99823.19
2022-09-28T19:19:02.694Z,99819.09
2022-09-28T19:21:31.119Z,99832.44
2022-09-28T19:24:01.543Z,99833.53
2022-09-28T19:26:30.037Z,99838.94
2022-09-28T19:28:58.574Z,99831.19
2022-09-28T19:31:27.129Z,99829.56
2022-09-28T19:33:54.151Z,99836.63
2022-09-28T19:36:24.321Z,99832.41
2022-09-28T19:39:02.704Z,99841.25
2022-09-28T19:41:44.684Z,99844.88
2022-09-28T19:44:27.259Z,99833.72
2022-09-28T19:47:06.924Z,99840.84
2022-09-28T19:49:37.467Z,99844.47
2022-09-28T19:52:14.414Z,99842.88
2022-09-28T19:54:57.449Z,99847.38
2022-09-28T19:57:30.830Z,99850.09
2022-09-28T20:00:02.811Z,99851.09
2022-09-28T20:02:35.038Z,99853.84
2022-09-28T20:05:03.515Z,99853.94
2022-09-28T20:07:32.900Z,99857.53
2022-09-28T20:10:00.178Z,99851.53
2022-09-28T20:12:29.290Z,99861.22
2022-09-28T20:14:56.295Z,99852.56
2022-09-28T20:17:23.382Z,99853.63
2022-09-28T20:19:51.722Z,99852.00
2022-09-28T20:22:19.938Z,99853.81
2022-09-28T20:24:47.037Z,99857.38
2022-09-28T20:27:14.032Z,99857.47
2022-09-28T20:29:43.053Z,99864.56
2022-09-28T20:32:11.706Z,99860.31
2022-09-28T20:34:38.951Z,99867.41
2022-09-28T20:37:05.966Z,99856.91
2022-09-28T20:39:34.483Z,99868.38
2022-09-28T20:42:01.555Z,99864.13
2022-09-28T20:44:28.563Z,99863.34
2022-09-28T20:46:56.666Z,99857.38
2022-09-28T20:49:23.859Z,99861.00
2022-09-28T20:51:51.343Z,99862.88
2022-09-28T20:54:18.561Z,99860.34
2022-09-28T20:56:48.040Z,99867.38
2022-09-28T20:59:15.715Z,99866.56
2022-09-28T21:01:42.879Z,99860.53
2022-09-28T21:04:10.739Z,99878.06
2022-09-28T21:06:41.349Z,99867.66
2022-09-28T21:09:10.958Z,99863.41
2022-09-28T21:11:39.439Z,99864.34
2022-09-28T21:14:09.583Z,99874.88
2022-09-28T21:16:37.572Z,99876.69
2022-09-28T21:19:04.698Z,99870.63
2022-09-28T21:21:32.115Z,99871.56
2022-09-28T21:23:59.513Z,99873.38
2022-09-28T21:26:29.728Z,99871.75
2022-09-28T21:29:03.723Z,99873.59
2022-09-28T21:31:45.650Z,99872.81
2022-09-28T21:34:19.329Z,99872.94
2022-09-28T21:36:54.655Z,99873.84
2022-09-28T21:39:22.179Z,99874.88
2022-09-28T21:41:49.315Z,99874.97
2022-09-28T21:44:16.480Z,99875.00
2022-09-28T21:46:43.675Z,99881.16
2022-09-28T21:49:12.607Z,99893.44
2022-09-28T21:51:39.773Z,99891.78
2022-09-28T21:54:06.891Z,99896.19
2022-09-28T21:56:34.060Z,99898.91
2022-09-28T21:59:01.301Z,99893.75
2022-09-28T22:01:29.058Z,99904.25
2022-09-28T22:03:58.359Z,99898.25
2022-09-28T22:06:28.133Z,99907.09
2022-09-28T22:08:59.189Z,99906.28
2022-09-28T22:11:28.808Z,99907.22
2022-09-28T22:13:59.268Z,99912.66
2022-09-28T22:16:30.402Z,99908.41
2022-09-28T22:18:59.427Z,99902.41
2022-09-28T22:21:31.789Z,99901.66
2022-09-28T22:24:02.000Z,99901.75
2022-09-28T22:26:31.953Z,99903.66
2022-09-28T22:29:03.514Z,99917.63
2022-09-28T22:31:34.860Z,99909.88
2022-09-28T22:34:03.004Z,99911.66
2022-09-28T22:36:31.720Z,99917.84
2022-09-28T22:38:59.691Z,99924.84
2022-09-28T22:41:27.372Z,99923.13
2022-09-28T22:43:55.118Z,99922.28
2022-09-28T22:46:27.488Z,99924.91
2022-09-28T22:48:57.904Z,99931.06
2022-09-28T22:51:29.965Z,99926.78
2022-09-28T22:53:58.229Z,99930.28
2022-09-28T22:56:25.671Z,99925.09
2022-09-28T22:58:53.151Z,99929.47
2022-09-28T23:01:28.423Z,99923.41
2022-09-28T23:03:57.656Z,99931.28
2022-09-28T23:06:30.211Z,99924.38
2022-09-28T23:08:57.712Z,99921.78
2022-09-28T23:11:24.911Z,99917.44
2022-09-28T23:13:58.582Z,99916.59
2022-09-28T23:16:26.802Z,99916.66
2022-09-28T23:18:55.866Z,99910.63
2022-09-28T23:21:25.935Z,99910.63
2022-09-28T23:23:57.011Z,99917.59
2022-09-28T23:26:28.758Z,99912.44
2022-09-28T23:28:56.564Z,99913.34
2022-09-28T23:31:30.543Z,99912.53
2022-09-28T23:34:04.942Z,99915.16
2022-09-28T23:36:32.382Z,99917.75
2022-09-28T23:38:59.394Z,99927.38
2022-09-28T23:41:26.441Z,99921.31
2022-09-28T23:43:53.385Z,99926.59
2022-09-28T23:46:21.148Z,99924.88
2022-09-28T23:48:49.427Z,99922.25
2022-09-28T23:51:16.865Z,99924.06
2022-09-28T23:53:44.192Z,99920.63
2022-09-28T23:56:11.996Z,99923.25
2022-09-28T23:58:38.945Z,99923.31
